createdAt,value
2022-08-31T00:00:10.014Z,23.39
2022-08-31T00:02:56.371Z,23.39
2022-08-31T00:05:23.646Z,23.38
2022-08-31T00:07:50.387Z,23.36
2022-08-31T00:10:20.041Z,23.46
2022-08-31T00:12:58.742Z,23.39
2022-08-31T00:15:25.914Z,23.34
2022-08-31T00:17:56.159Z,23.32
2022-08-31T00:20:33.266Z,23.36
2022-08-31T00:23:05.683Z,23.33
2022-08-31T00:25:33.851Z,23.32
2022-08-31T00:28:00.591Z,23.28
2022-08-31T00:30:27.357Z,23.36
2022-08-31T00:32:54.176Z,23.29
2022-08-31T00:35:25.370Z,23.33
2022-08-31T00:37:51.976Z,23.27
2022-08-31T00:40:18.909Z,23.31
2022-08-31T00:42:45.623Z,23.31
2022-08-31T00:45:12.355Z,23.25
2022-08-31T00:47:38.983Z,23.24
2022-08-31T00:50:09.719Z,23.24
2022-08-31T00:52:41.244Z,23.22
2022-08-31T00:55:15.786Z,23.19
2022-08-31T00:57:46.091Z,23.19
2022-08-31T01:00:18.381Z,23.26
2022-08-31T01:02:45.827Z,23.19
2022-08-31T01:05:13.722Z,23.15
2022-08-31T01:07:41.018Z,23.12
2022-08-31T01:10:08.934Z,23.15
2022-08-31T01:12:35.874Z,23.27
2022-08-31T01:15:07.336Z,23.20
2022-08-31T01:17:36.423Z,23.14
2022-08-31T01:20:21.651Z,23.20
2022-08-31T01:23:13.203Z,23.17
2022-08-31T01:25:43.654Z,23.12
2022-08-31T01:28:11.767Z,23.15
2022-08-31T01:30:40.285Z,23.12
2022-08-31T01:33:07.458Z,23.09
2022-08-31T01:35:34.531Z,23.13
2022-08-31T01:38:02.460Z,23.15
2022-08-31T01:40:36.778Z,23.08
2022-08-31T01:43:03.511Z,23.12
2022-08-31T01:45:30.174Z,23.08
2022-08-31T01:47:59.197Z,23.05
2022-08-31T01:50:25.944Z,23.07
2022-08-31T01:52:52.586Z,23.06
2022-08-31T01:55:19.259Z,23.03
2022-08-31T01:57:45.864Z,23.04
2022-08-31T02:00:13.109Z,23.03
2022-08-31T02:02:39.890Z,23.00
2022-08-31T02:05:09.169Z,23.08
2022-08-31T02:07:35.807Z,23.04
2022-08-31T02:10:02.427Z,23.03
2022-08-31T02:12:29.032Z,23.05
2022-08-31T02:14:55.716Z,23.05
2022-08-31T02:17:22.731Z,23.07
2022-08-31T02:19:49.363Z,23.03
2022-08-31T02:22:16.035Z,23.01
2022-08-31T02:24:42.662Z,23.03
2022-08-31T02:27:09.374Z,22.99
2022-08-31T02:29:36.854Z,23.04
2022-08-31T02:32:03.926Z,22.99
2022-08-31T02:34:30.544Z,22.96
2022-08-31T02:36:57.297Z,22.93
2022-08-31T02:39:24.673Z,22.93
2022-08-31T02:41:51.302Z,22.93
2022-08-31T02:44:18.005Z,22.91
2022-08-31T02:46:45.282Z,22.91
2022-08-31T02:49:13.640Z,22.90
2022-08-31T02:51:41.682Z,22.88
2022-08-31T02:54:08.741Z,22.86
2022-08-31T02:56:35.426Z,22.85
2022-08-31T02:59:02.097Z,22.89
2022-08-31T03:01:29.394Z,22.88
2022-08-31T03:03:56.148Z,22.86
2022-08-31T03:06:23.720Z,22.84
2022-08-31T03:08:50.553Z,22.87
2022-08-31T03:11:17.854Z,22.87
2022-08-31T03:13:44.852Z,22.83
2022-08-31T03:16:13.781Z,22.83
2022-08-31T03:18:40.453Z,22.87
2022-08-31T03:21:07.179Z,22.86
2022-08-31T03:23:33.781Z,22.87
2022-08-31T03:26:00.572Z,22.87
2022-08-31T03:28:27.205Z,22.89
2022-08-31T03:30:53.989Z,22.88
2022-08-31T03:33:20.793Z,22.91
2022-08-31T03:35:47.525Z,22.87
2022-08-31T03:38:15.888Z,22.86
2022-08-31T03:40:44.153Z,22.86
2022-08-31T03:43:12.065Z,22.91
2022-08-31T03:45:40.860Z,22.88
2022-08-31T03:48:12.202Z,22.84
2022-08-31T03:50:40.882Z,22.89
2022-08-31T03:53:08.954Z,22.85
2022-08-31T03:55:38.504Z,22.83
2022-08-31T03:58:05.994Z,22.80
2022-08-31T04:00:32.964Z,22.81
2022-08-31T04:03:00.413Z,22.80
2022-08-31T04:05:28.869Z,22.80
2022-08-31T04:07:55.984Z,22.82
2022-08-31T04:10:23.378Z,22.87
2022-08-31T04:12:50.738Z,22.86
2022-08-31T04:15:18.126Z,22.84
2022-08-31T04:17:47.946Z,22.77
2022-08-31T04:20:16.663Z,22.77
2022-08-31T04:22:43.281Z,22.79
2022-08-31T04:25:10.504Z,22.82
2022-08-31T04:27:40.586Z,22.83
2022-08-31T04:30:09.051Z,22.81
2022-08-31T04:32:35.974Z,22.82
2022-08-31T04:35:03.634Z,22.81
2022-08-31T04:37:30.856Z,22.75
2022-08-31T04:39:59.214Z,22.77
2022-08-31T04:42:26.210Z,22.79
2022-08-31T04:44:52.877Z,22.84
2022-08-31T04:47:20.495Z,22.89
2022-08-31T04:49:48.085Z,22.87
2022-08-31T04:52:14.785Z,22.87
2022-08-31T04:54:41.384Z,22.89
2022-08-31T04:57:08.075Z,22.94
2022-08-31T04:59:34.810Z,22.94
2022-08-31T05:02:01.640Z,23.08
2022-08-31T05:04:29.170Z,23.45
2022-08-31T05:06:56.595Z,23.72
2022-08-31T05:09:24.446Z,23.80
2022-08-31T05:11:55.822Z,23.80
2022-08-31T05:14:24.111Z,23.99
2022-08-31T05:16:51.782Z,24.13
2022-08-31T05:19:19.715Z,24.08
2022-08-31T05:21:47.201Z,24.07
2022-08-31T05:24:18.174Z,24.08
2022-08-31T05:26:49.010Z,24.06
2022-08-31T05:29:17.704Z,24.05
2022-08-31T05:31:49.072Z,24.02
2022-08-31T05:34:19.200Z,23.99
2022-08-31T05:36:50.882Z,24.00
2022-08-31T05:39:17.628Z,24.02
2022-08-31T05:41:46.895Z,24.03
2022-08-31T05:44:14.315Z,24.08
2022-08-31T05:46:41.849Z,24.10
2022-08-31T05:49:10.912Z,24.09
2022-08-31T05:51:39.201Z,24.06
2022-08-31T05:54:07.537Z,24.06
2022-08-31T05:56:34.898Z,24.06
2022-08-31T05:59:01.641Z,23.99
2022-08-31T06:01:34.726Z,23.96
2022-08-31T06:04:02.507Z,23.92
2022-08-31T06:06:29.967Z,23.82
2022-08-31T06:08:57.753Z,23.87
2022-08-31T06:11:29.095Z,23.85
2022-08-31T06:13:58.299Z,23.83
2022-08-31T06:16:26.478Z,23.79
2022-08-31T06:18:55.726Z,23.79
2022-08-31T06:21:28.330Z,23.86
2022-08-31T06:23:59.678Z,23.87
2022-08-31T06:26:28.987Z,23.84
2022-08-31T06:28:58.498Z,23.81
2022-08-31T06:31:30.566Z,23.77
2022-08-31T06:33:58.788Z,23.59
2022-08-31T06:36:28.467Z,23.64
2022-08-31T06:38:56.498Z,23.56
2022-08-31T06:41:36.432Z,23.50
2022-08-31T06:44:07.744Z,23.42
2022-08-31T06:46:36.146Z,23.36
2022-08-31T06:49:03.475Z,23.33
2022-08-31T06:51:36.589Z,23.27
2022-08-31T06:54:28.064Z,23.21
2022-08-31T06:56:58.476Z,23.18
2022-08-31T06:59:28.519Z,23.11
2022-08-31T07:01:56.482Z,23.14
2022-08-31T07:04:23.149Z,23.19
2022-08-31T07:06:49.828Z,23.17
2022-08-31T07:09:18.110Z,23.15
2022-08-31T07:11:49.013Z,23.18
2022-08-31T07:14:21.924Z,23.19
2022-08-31T07:16:49.522Z,23.12
2022-08-31T07:19:16.396Z,23.11
2022-08-31T07:21:48.937Z,23.17
2022-08-31T07:24:19.145Z,23.15
2022-08-31T07:26:48.670Z,23.10
2022-08-31T07:29:18.544Z,23.04
2022-08-31T07:31:48.611Z,23.10
2022-08-31T07:34:19.200Z,23.16
2022-08-31T07:37:05.555Z,23.14
2022-08-31T07:39:52.008Z,23.15
2022-08-31T07:42:24.334Z,23.16
2022-08-31T07:44:53.790Z,23.16
2022-08-31T07:47:22.513Z,23.23
2022-08-31T07:49:52.581Z,23.31
2022-08-31T07:52:25.957Z,23.30
2022-08-31T07:54:56.305Z,23.32
2022-08-31T07:57:30.130Z,23.28
2022-08-31T08:00:01.220Z,23.25
2022-08-31T08:02:29.111Z,23.19
2022-08-31T08:04:55.808Z,23.31
2022-08-31T08:07:22.921Z,23.38
2022-08-31T08:09:49.516Z,23.45
2022-08-31T08:12:16.249Z,23.43
2022-08-31T08:14:42.866Z,23.35
2022-08-31T08:17:09.558Z,23.36
2022-08-31T08:19:36.259Z,23.34
2022-08-31T08:22:04.183Z,23.38
2022-08-31T08:24:31.691Z,23.43
2022-08-31T08:26:59.303Z,23.44
2022-08-31T08:29:27.268Z,23.57
2022-08-31T08:31:55.442Z,23.61
2022-08-31T08:34:29.652Z,23.54
2022-08-31T08:37:00.181Z,23.54
2022-08-31T08:39:27.537Z,23.63
2022-08-31T08:41:57.834Z,23.72
2022-08-31T08:44:28.754Z,23.81
2022-08-31T08:46:58.870Z,23.88
2022-08-31T08:49:28.877Z,23.83
2022-08-31T08:52:11.846Z,23.90
2022-08-31T08:54:42.934Z,24.38
2022-08-31T08:57:16.843Z,24.84
2022-08-31T08:59:46.875Z,25.03
2022-08-31T09:02:45.910Z,25.02
2022-08-31T09:05:25.149Z,25.16
2022-08-31T09:07:57.847Z,25.25
2022-08-31T09:10:42.043Z,25.20
2022-08-31T09:13:53.372Z,25.12
2022-08-31T09:16:26.200Z,25.19
2022-08-31T09:18:57.428Z,25.06
2022-08-31T09:21:28.886Z,25.08
2022-08-31T09:24:05.556Z,25.23
2022-08-31T09:26:47.532Z,25.36
2022-08-31T09:29:29.583Z,25.56
2022-08-31T09:32:08.074Z,25.73
2022-08-31T09:34:43.565Z,25.89
2022-08-31T09:37:20.384Z,25.77
2022-08-31T09:39:49.631Z,25.63
2022-08-31T09:42:33.834Z,26.23
2022-08-31T09:45:11.630Z,26.39
2022-08-31T09:47:55.825Z,26.66
2022-08-31T09:50:46.059Z,26.79
2022-08-31T09:53:42.005Z,27.06
2022-08-31T09:56:19.040Z,27.35
2022-08-31T09:59:02.839Z,27.62
2022-08-31T10:01:38.659Z,27.78
2022-08-31T10:04:17.959Z,28.15
2022-08-31T10:06:46.654Z,28.53
2022-08-31T10:09:48.498Z,28.92
2022-08-31T10:12:50.937Z,29.22
2022-08-31T10:15:42.167Z,29.52
2022-08-31T10:18:25.178Z,29.63
2022-08-31T10:21:31.472Z,30.06
2022-08-31T10:24:11.788Z,27.95
2022-08-31T10:26:46.640Z,27.67
2022-08-31T10:29:36.035Z,29.11
2022-08-31T10:32:18.449Z,30.00
2022-08-31T10:35:08.389Z,30.49
2022-08-31T10:37:43.817Z,30.83
2022-08-31T10:40:32.639Z,31.31
2022-08-31T10:43:09.835Z,31.60
2022-08-31T10:45:42.525Z,31.71
2022-08-31T10:48:12.116Z,31.80
2022-08-31T10:50:48.272Z,32.00
2022-08-31T10:53:40.281Z,32.07
2022-08-31T10:56:36.773Z,30.42
2022-08-31T10:59:20.474Z,31.85
2022-08-31T11:01:53.006Z,31.87
2022-08-31T11:04:39.964Z,29.48
2022-08-31T11:07:26.806Z,31.48
2022-08-31T11:10:12.106Z,32.30
2022-08-31T11:12:46.533Z,31.66
2022-08-31T11:15:58.927Z,30.70
2022-08-31T11:18:54.672Z,29.72
2022-08-31T11:21:35.505Z,29.49
2022-08-31T11:24:46.851Z,28.65
2022-08-31T11:27:17.307Z,28.17
2022-08-31T11:30:02.657Z,30.87
2022-08-31T11:32:47.576Z,29.34
2022-08-31T11:35:15.531Z,29.18
2022-08-31T11:37:52.121Z,28.70
2022-08-31T11:40:41.924Z,32.27
2022-08-31T11:43:35.751Z,33.77
2022-08-31T11:46:26.688Z,29.48
2022-08-31T11:48:53.998Z,28.36
2022-08-31T11:51:37.312Z,29.84
2022-08-31T11:54:27.001Z,32.91
2022-08-31T11:56:57.653Z,33.81
2022-08-31T11:59:35.215Z,33.61
2022-08-31T12:02:26.131Z,33.29
2022-08-31T12:04:53.559Z,33.43
2022-08-31T12:07:26.709Z,33.03
2022-08-31T12:10:14.955Z,32.47
2022-08-31T12:12:56.599Z,32.59
2022-08-31T12:15:26.244Z,32.36
2022-08-31T12:18:14.265Z,31.55
2022-08-31T12:21:02.336Z,30.74
2022-08-31T12:23:38.809Z,31.38
2022-08-31T12:26:29.768Z,31.22
2022-08-31T12:29:10.305Z,31.40
2022-08-31T12:31:40.508Z,31.22
2022-08-31T12:34:13.728Z,30.97
2022-08-31T12:36:40.691Z,30.90
2022-08-31T12:39:34.445Z,31.05
2022-08-31T12:42:05.547Z,30.86
2022-08-31T12:44:37.540Z,30.90
2022-08-31T12:47:06.385Z,30.01
2022-08-31T12:50:18.017Z,29.35
2022-08-31T12:53:14.590Z,29.29
2022-08-31T12:56:06.421Z,29.55
2022-08-31T12:58:44.624Z,29.83
2022-08-31T13:01:13.953Z,29.90
2022-08-31T13:03:53.961Z,29.91
2022-08-31T13:06:33.794Z,30.00
2022-08-31T13:09:01.067Z,30.00
2022-08-31T13:11:35.188Z,30.05
2022-08-31T13:14:38.530Z,29.99
2022-08-31T13:17:12.397Z,30.15
2022-08-31T13:19:43.806Z,30.22
2022-08-31T13:22:16.966Z,30.28
2022-08-31T13:24:53.475Z,30.25
2022-08-31T13:27:26.641Z,29.80
2022-08-31T13:29:55.997Z,29.38
2022-08-31T13:32:34.466Z,29.08
2022-08-31T13:35:10.238Z,28.96
2022-08-31T13:37:52.489Z,29.22
2022-08-31T13:40:29.382Z,29.36
2022-08-31T13:42:58.064Z,29.45
2022-08-31T13:45:26.927Z,29.48
2022-08-31T13:48:06.181Z,29.52
2022-08-31T13:50:52.317Z,29.49
2022-08-31T13:53:44.992Z,29.65
2022-08-31T13:56:48.423Z,29.65
2022-08-31T13:59:23.996Z,29.81
2022-08-31T14:01:59.297Z,29.78
2022-08-31T14:04:48.609Z,29.86
2022-08-31T14:07:30.437Z,29.73
2022-08-31T14:10:19.459Z,29.82
2022-08-31T14:12:55.148Z,29.78
2022-08-31T14:15:50.364Z,29.72
2022-08-31T14:18:26.142Z,29.82
2022-08-31T14:21:20.997Z,29.82
2022-08-31T14:24:01.236Z,29.89
2022-08-31T14:26:31.852Z,29.99
2022-08-31T14:29:09.623Z,29.99
2022-08-31T14:31:52.258Z,29.85
2022-08-31T14:34:32.088Z,29.73
2022-08-31T14:37:02.240Z,29.62
2022-08-31T14:39:35.197Z,29.32
2022-08-31T14:42:25.651Z,29.28
2022-08-31T14:45:00.455Z,29.20
2022-08-31T14:47:30.164Z,29.11
2022-08-31T14:49:59.736Z,28.97
2022-08-31T14:52:26.921Z,28.88
2022-08-31T14:54:54.008Z,28.71
2022-08-31T14:57:25.386Z,28.63
2022-08-31T14:59:59.574Z,28.51
2022-08-31T15:02:28.811Z,28.59
2022-08-31T15:04:59.730Z,28.56
2022-08-31T15:07:32.119Z,28.51
2022-08-31T15:09:59.501Z,28.44
2022-08-31T15:12:26.763Z,28.39
2022-08-31T15:14:59.812Z,28.32
2022-08-31T15:17:33.815Z,28.14
2022-08-31T15:20:03.273Z,28.10
2022-08-31T15:22:31.315Z,28.04
2022-08-31T15:24:58.055Z,27.93
2022-08-31T15:27:29.166Z,27.89
2022-08-31T15:30:02.520Z,27.84
2022-08-31T15:32:29.196Z,27.87
2022-08-31T15:34:58.883Z,27.84
2022-08-31T15:37:31.672Z,27.92
2022-08-31T15:40:00.882Z,27.93
2022-08-31T15:42:29.588Z,27.84
2022-08-31T15:44:57.320Z,27.85
2022-08-31T15:47:49.246Z,27.79
2022-08-31T15:50:19.287Z,27.73
2022-08-31T15:52:51.076Z,27.60
2022-08-31T15:55:26.330Z,27.50
2022-08-31T15:57:54.612Z,27.44
2022-08-31T16:00:23.497Z,27.39
2022-08-31T16:02:55.089Z,27.24
2022-08-31T16:05:22.251Z,27.24
2022-08-31T16:07:51.200Z,27.23
2022-08-31T16:10:20.362Z,27.27
2022-08-31T16:12:51.972Z,27.32
2022-08-31T16:15:21.301Z,27.18
2022-08-31T16:17:51.077Z,27.02
2022-08-31T16:20:17.806Z,27.06
2022-08-31T16:22:44.606Z,27.06
2022-08-31T16:25:14.065Z,27.06
2022-08-31T16:27:41.580Z,27.03
2022-08-31T16:30:10.683Z,26.99
2022-08-31T16:32:37.390Z,26.90
2022-08-31T16:35:05.585Z,26.89
2022-08-31T16:37:33.304Z,26.84
2022-08-31T16:40:00.081Z,26.78
2022-08-31T16:42:27.187Z,26.71
2022-08-31T16:44:58.498Z,26.72
2022-08-31T16:47:28.999Z,26.69
2022-08-31T16:49:55.796Z,26.65
2022-08-31T16:52:26.408Z,26.56
2022-08-31T16:54:54.040Z,26.55
2022-08-31T16:57:25.397Z,26.54
2022-08-31T16:59:52.083Z,26.50
2022-08-31T17:02:20.162Z,26.50
2022-08-31T17:04:54.709Z,26.44
2022-08-31T17:07:24.332Z,26.39
2022-08-31T17:09:55.715Z,26.33
2022-08-31T17:12:26.004Z,26.35
2022-08-31T17:14:53.104Z,26.34
2022-08-31T17:17:25.317Z,26.27
2022-08-31T17:19:53.999Z,26.25
2022-08-31T17:22:30.030Z,26.14
2022-08-31T17:25:00.383Z,26.14
2022-08-31T17:27:27.410Z,26.17
2022-08-31T17:30:00.823Z,26.08
2022-08-31T17:32:28.386Z,26.05
2022-08-31T17:34:55.833Z,26.02
2022-08-31T17:37:32.416Z,25.96
2022-08-31T17:40:00.080Z,26.00
2022-08-31T17:42:27.949Z,25.94
2022-08-31T17:44:56.341Z,25.93
2022-08-31T17:47:25.461Z,25.97
2022-08-31T17:49:52.779Z,25.91
2022-08-31T17:52:21.715Z,25.92
2022-08-31T17:54:50.940Z,25.89
2022-08-31T17:57:21.187Z,25.88
2022-08-31T17:59:48.972Z,25.85
2022-08-31T18:02:32.341Z,25.80
2022-08-31T18:04:59.695Z,25.79
2022-08-31T18:07:26.492Z,25.70
2022-08-31T18:09:53.726Z,25.68
2022-08-31T18:12:22.105Z,25.65
2022-08-31T18:14:49.719Z,25.59
2022-08-31T18:17:17.104Z,25.55
2022-08-31T18:19:45.001Z,25.52
2022-08-31T18:22:14.109Z,25.53
2022-08-31T18:24:41.417Z,25.48
2022-08-31T18:27:09.664Z,25.52
2022-08-31T18:29:37.709Z,25.57
2022-08-31T18:32:06.543Z,25.59
2022-08-31T18:34:36.247Z,25.68
2022-08-31T18:37:04.616Z,25.70
2022-08-31T18:39:52.417Z,25.70
2022-08-31T18:42:39.076Z,25.69
2022-08-31T18:45:15.369Z,25.66
2022-08-31T18:47:42.547Z,25.65
2022-08-31T18:50:10.030Z,25.62
2022-08-31T18:52:39.296Z,25.58
2022-08-31T18:55:06.879Z,25.59
2022-08-31T18:57:34.173Z,25.54
2022-08-31T19:00:05.721Z,25.52
2022-08-31T19:02:33.309Z,25.50
2022-08-31T19:05:00.323Z,25.57
2022-08-31T19:07:27.045Z,25.59
2022-08-31T19:09:55.008Z,25.56
2022-08-31T19:12:21.870Z,25.53
2022-08-31T19:14:50.387Z,25.50
2022-08-31T19:17:18.848Z,25.43
2022-08-31T19:19:46.964Z,25.44
2022-08-31T19:22:14.097Z,25.35
2022-08-31T19:24:41.739Z,25.28
2022-08-31T19:27:09.440Z,25.26
2022-08-31T19:29:36.424Z,25.25
2022-08-31T19:32:04.965Z,25.19
2022-08-31T19:34:34.771Z,25.10
2022-08-31T19:37:02.680Z,25.10
2022-08-31T19:39:36.922Z,25.01
2022-08-31T19:42:06.915Z,24.72
2022-08-31T19:47:25.268Z,24.97
2022-08-31T19:49:52.822Z,25.17
2022-08-31T19:52:20.152Z,25.22
2022-08-31T19:54:48.436Z,25.09
2022-08-31T19:57:16.674Z,25.07
2022-08-31T19:59:43.335Z,25.14
2022-08-31T20:02:10.174Z,25.14
2022-08-31T20:04:36.828Z,25.04
2022-08-31T20:07:06.326Z,25.09
2022-08-31T20:09:34.451Z,25.01
2022-08-31T20:12:02.210Z,24.99
2022-08-31T20:14:29.056Z,24.99
2022-08-31T20:16:55.698Z,24.83
2022-08-31T20:19:25.884Z,24.93
2022-08-31T20:21:54.875Z,24.97
2022-08-31T20:24:26.835Z,25.07
2022-08-31T20:26:55.458Z,25.04
2022-08-31T20:29:23.800Z,24.96
2022-08-31T20:31:51.767Z,24.84
2022-08-31T20:34:22.056Z,24.82
2022-08-31T20:36:52.206Z,24.90
2022-08-31T20:39:20.055Z,24.95
2022-08-31T20:41:49.042Z,24.89
2022-08-31T20:44:19.598Z,24.77
2022-08-31T20:47:11.015Z,24.80
2022-08-31T20:49:59.326Z,24.84
2022-08-31T20:52:29.796Z,24.87
2022-08-31T20:55:01.271Z,24.85
2022-08-31T20:57:30.260Z,24.72
2022-08-31T20:59:56.962Z,24.63
2022-08-31T21:02:23.943Z,24.71
2022-08-31T21:04:50.538Z,24.90
2022-08-31T21:07:19.191Z,24.88
2022-08-31T21:09:47.118Z,24.79
2022-08-31T21:12:18.141Z,24.76
2022-08-31T21:14:46.109Z,24.67
2022-08-31T21:17:14.213Z,24.77
2022-08-31T21:19:42.046Z,24.74
2022-08-31T21:22:12.520Z,24.73
2022-08-31T21:24:41.827Z,24.56
2022-08-31T21:27:13.546Z,24.57
2022-08-31T21:29:40.647Z,24.57
2022-08-31T21:32:09.672Z,24.55
2022-08-31T21:34:37.379Z,24.52
2022-08-31T21:37:04.742Z,24.53
2022-08-31T21:39:32.492Z,24.40
2022-08-31T21:41:59.719Z,24.48
2022-08-31T21:44:26.954Z,24.57
2022-08-31T21:46:53.698Z,24.56
2022-08-31T21:49:20.660Z,24.50
2022-08-31T21:51:50.765Z,24.50
2022-08-31T21:54:21.251Z,24.42
2022-08-31T21:56:55.313Z,24.51
2022-08-31T21:59:24.551Z,24.53
2022-08-31T22:01:56.819Z,24.60
2022-08-31T22:04:23.829Z,24.58
2022-08-31T22:06:50.540Z,24.46
2022-08-31T22:09:22.372Z,24.50
2022-08-31T22:11:52.684Z,24.52
2022-08-31T22:14:25.819Z,24.58
2022-08-31T22:16:54.231Z,24.61
2022-08-31T22:19:23.628Z,24.65
2022-08-31T22:21:53.395Z,24.50
2022-08-31T22:24:27.377Z,24.48
2022-08-31T22:26:56.000Z,24.39
2022-08-31T22:29:26.159Z,24.28
2022-08-31T22:31:56.270Z,24.24
2022-08-31T22:34:22.937Z,24.26
2022-08-31T22:36:52.033Z,24.28
2022-08-31T22:39:25.205Z,24.22
2022-08-31T22:41:53.056Z,24.16
2022-08-31T22:44:22.045Z,24.20
2022-08-31T22:46:49.110Z,24.14
2022-08-31T22:49:16.202Z,24.02
2022-08-31T22:51:48.371Z,24.16
2022-08-31T22:54:17.454Z,24.17
2022-08-31T22:56:45.116Z,24.16
2022-08-31T22:59:15.983Z,24.11
2022-08-31T23:01:50.579Z,24.13
2022-08-31T23:04:19.937Z,24.06
2022-08-31T23:06:49.156Z,23.99
2022-08-31T23:09:21.469Z,23.96
2022-08-31T23:11:49.415Z,23.91
2022-08-31T23:14:17.366Z,23.96
2022-08-31T23:16:47.346Z,24.03
2022-08-31T23:19:18.286Z,24.05
2022-08-31T23:21:56.936Z,24.11
2022-08-31T23:24:34.622Z,24.06
2022-08-31T23:27:05.040Z,23.97
2022-08-31T23:29:47.889Z,23.92
2022-08-31T23:32:19.467Z,23.89
2022-08-31T23:34:49.788Z,23.85
2022-08-31T23:37:17.735Z,23.91
2022-08-31T23:39:45.857Z,23.91
2022-08-31T23:42:14.604Z,23.95
2022-08-31T23:44:43.795Z,23.98
2022-08-31T23:47:16.938Z,23.85
2022-08-31T23:49:44.585Z,23.82
2022-08-31T23:52:13.023Z,23.74
2022-08-31T23:54:40.200Z,23.72
2022-08-31T23:57:08.520Z,23.76
2022-08-31T23:59:53.072Z,23.75
